| time (UTC) | temp C | wind direction | speed KPH | gust KPH | rain 1hr cm | rain 24hr cm | rain mn cm | humidity % | barometer mb |
| 20260506044540 | 21 | 219 | 0.0 | 3.2 | 0.00 | 0.00 | 0.00 | 53 | 1012.9 |
| 20260506043032 | 21 | 242 | 0.0 | 3.2 | 0.00 | 0.00 | 0.00 | 53 | 1013.4 |
| 20260506041543 | 21 | 224 | 0.0 | 3.2 | 0.00 | 0.00 | 0.00 | 53 | 1013.4 |
| 20260506040032 | 21 | 223 | 0.0 | 3.2 | 0.00 | 0.00 | 0.00 | 53 | 1013.2 |
| 20260506034533 | 21 | 223 | 0.0 | 0.0 | 0.00 | 0.00 | 0.00 | 51 | 1013.3 |
| 20260506033031 | 21 | 244 | 0.0 | 0.0 | 0.00 | 0.00 | 0.00 | 49 | 1013.4 |
| 20260506031531 | 21 | 244 | 0.0 | 0.0 | 0.00 | 0.00 | 0.00 | 47 | 1013.5 |
| 20260506030031 | 21 | 234 | 0.0 | 1.6 | 0.00 | 0.00 | 0.00 | 47 | 1013.4 |
| 20260506024527 | 21 | 213 | 0.0 | 1.6 | 0.00 | 0.00 | 0.00 | 49 | 1013.6 |
| 20260506023025 | 21 | 213 | 0.0 | 0.0 | 0.00 | 0.00 | 0.00 | 54 | 1013.4 |
| 20260506021525 | 20 | 213 | 0.0 | 0.0 | 0.00 | 0.00 | 0.00 | 51 | 1013.3 |
| 20260506020025 | 20 | 213 | 0.0 | 0.0 | 0.00 | 0.00 | 0.00 | 53 | 1013.4 |
| 20260506014529 | 21 | 213 | 0.0 | 1.6 | 0.00 | 0.00 | 0.00 | 51 | 1013.1 |
| 20260506013032 | 21 | 213 | 0.0 | 0.0 | 0.00 | 0.00 | 0.00 | 54 | 1013.3 |
| 20260506011539 | 21 | 213 | 0.0 | 0.0 | 0.00 | 0.00 | 0.00 | 54 | 1012.9 |
| 20260506010028 | 22 | 213 | 0.0 | 0.0 | 0.00 | 0.00 | 0.00 | 47 | 1012.9 |
| 20260506004535 | 22 | 213 | 0.0 | 1.6 | 0.00 | 0.00 | 0.00 | 45 | 1012.9 |
| 20260506003023 | 22 | 213 | 0.0 | 3.2 | 0.00 | 0.00 | 0.00 | 44 | 1013.0 |
| 20260506001522 | 22 | 245 | 0.0 | 3.2 | 0.00 | 0.00 | 0.00 | 46 | 1012.9 |
| 20260506000022 | 22 | 244 | 0.0 | 0.0 | 0.00 | 0.00 | 0.00 | 51 | 1013.1 |
| 20260505234532 | 23 | 244 | 0.0 | 0.0 | 0.00 | 0.00 | 0.00 | 50 | 1013.0 |
| 20260505233034 | 23 | 244 | 0.0 | 0.0 | 0.00 | 0.00 | 0.00 | 46 | 1013.0 |
| 20260505231538 | 23 | 244 | 0.0 | 3.2 | 0.00 | 0.00 | 0.00 | 45 | 1012.9 |
| 20260505230033 | 24 | 208 | 0.0 | 1.6 | 0.00 | 0.00 | 0.00 | 43 | 1012.7 |
| 20260505224523 | 24 | 207 | 0.0 | 4.8 | 0.00 | 0.00 | 0.00 | 40 | 1012.8 |
| 20260505223022 | 24 | 205 | 0.0 | 3.2 | 0.00 | 0.00 | 0.00 | 39 | 1013.0 |
| 20260505221522 | 25 | 231 | 0.0 | 1.6 | 0.00 | 0.00 | 0.00 | 40 | 1013.0 |
| 20260505220042 | 25 | 255 | 0.0 | 3.2 | 0.00 | 0.00 | 0.00 | 39 | 1012.7 |
| 20260505214528 | 25 | 207 | 1.6 | 4.8 | 0.00 | 0.00 | 0.00 | 37 | 1012.9 |
| 20260505213021 | 25 | 213 | 3.2 | 8.0 | 0.00 | 0.00 | 0.00 | 36 | 1013.0 |
| 20260505211519 | 25 | 242 | 3.2 | 8.0 | 0.00 | 0.00 | 0.00 | 35 | 1013.0 |
| 20260505210018 | 25 | 246 | 0.0 | 8.0 | 0.00 | 0.00 | 0.00 | 37 | 1013.0 |
| 20260505204519 | 25 | 275 | 0.0 | 8.0 | 0.00 | 0.00 | 0.00 | 41 | 1013.3 |
| 20260505203015 | 25 | 257 | 1.6 | 6.4 | 0.00 | 0.00 | 0.00 | 38 | 1013.4 |
| 20260505201520 | 25 | 301 | 1.6 | 9.7 | 0.00 | 0.00 | 0.00 | 36 | 1013.4 |
| 20260505200017 | 25 | 180 | 3.2 | 9.7 | 0.00 | 0.00 | 0.00 | 37 | 1013.8 |
| 20260505194520 | 25 | 215 | 3.2 | 8.0 | 0.00 | 0.00 | 0.00 | 37 | 1014.2 |
| 20260505193021 | 24 | 250 | 1.6 | 8.0 | 0.00 | 0.00 | 0.00 | 39 | 1014.3 |
| 20260505191508 | 25 | 253 | 0.0 | 9.7 | 0.00 | 0.00 | 0.00 | 41 | 1014.3 |
| 20260505190007 | 25 | 226 | 0.0 | 6.4 | 0.00 | 0.00 | 0.00 | 40 | 1014.4 |
| 20260505184505 | 25 | 253 | 1.6 | 11.3 | 0.00 | 0.00 | 0.00 | 40 | 1014.5 |
| 20260505183005 | 24 | 195 | 3.2 | 8.0 | 0.00 | 0.00 | 0.00 | 40 | 1014.5 |
| 20260505181502 | 25 | 256 | 0.0 | 8.0 | 0.00 | 0.00 | 0.00 | 41 | 1014.7 |
| 20260505180100 | 24 | 237 | 0.0 | 8.0 | 0.00 | 0.00 | 0.00 | 42 | 1015.1 |
| 20260505174558 | 24 | 229 | 3.2 | 8.0 | 0.00 | 0.00 | 0.00 | 40 | 1015.3 |
| 20260505173057 | 23 | 212 | 1.6 | 6.4 | 0.00 | 0.00 | 0.00 | 44 | 1015.5 |
| 20260505171519 | 23 | 235 | 3.2 | 8.0 | 0.00 | 0.00 | 0.00 | 44 | 1015.8 |
| 20260505170017 | 23 | 194 | 1.6 | 9.7 | 0.00 | 0.00 | 0.00 | 42 | 1015.8 |
| 20260505164516 | 23 | 196 | 3.2 | 11.3 | 0.00 | 0.00 | 0.00 | 43 | 1015.8 |
| 20260505163014 | 22 | 179 | 3.2 | 12.9 | 0.00 | 0.00 | 0.00 | 45 | 1015.6 |
| 20260505161514 | 22 | 186 | 3.2 | 6.4 | 0.00 | 0.00 | 0.00 | 46 | 1015.6 |
| 20260505153006 | 20 | 264 | 0.0 | 3.2 | 0.00 | 0.00 | 0.00 | 58 | 1016.1 |
| 20260505151501 | 20 | 15 | 1.6 | 3.2 | 0.00 | 0.00 | 0.00 | 62 | 1016.0 |
| 20260505123032 | 10 | 257 | 0.0 | 0.0 | 0.00 | 0.00 | 0.00 | 95 | 1015.9 |
| 20260505121535 | 9 | 257 | 0.0 | 0.0 | 0.00 | 0.00 | 0.00 | 95 | 1015.8 |
| 20260505120040 | 8 | 257 | 0.0 | 0.0 | 0.00 | 0.00 | 0.00 | 95 | 1015.8 |
| 20260505113021 | 7 | 257 | 0.0 | 0.0 | 0.00 | 0.00 | 0.00 | 94 | 1015.3 |
| 20260505111522 | 7 | 257 | 0.0 | 0.0 | 0.00 | 0.00 | 0.00 | 94 | 1014.9 |
| 20260505101525 | 8 | 257 | 0.0 | 0.0 | 0.00 | 0.00 | 0.00 | 93 | 1014.7 |
| 20260505100025 | 8 | 257 | 0.0 | 0.0 | 0.00 | 0.00 | 0.00 | 93 | 1014.8 |
| 20260505093020 | 8 | 257 | 0.0 | 0.0 | 0.00 | 0.00 | 0.00 | 92 | 1014.8 |
| 20260505091519 | 8 | 257 | 0.0 | 0.0 | 0.00 | 0.00 | 0.00 | 92 | 1014.7 |
| 20260505090016 | 8 | 257 | 0.0 | 0.0 | 0.00 | 0.00 | 0.00 | 92 | 1015.1 |
| 20260505083011 | 8 | 257 | 0.0 | 1.6 | 0.00 | 0.00 | 0.00 | 92 | 1015.0 |
| 20260505081516 | 8 | 257 | 0.0 | 0.0 | 0.00 | 0.00 | 0.00 | 91 | 1015.0 |
| 20260505080009 | 8 | 257 | 0.0 | 1.6 | 0.00 | 0.00 | 0.00 | 91 | 1015.0 |
| 20260505073012 | 9 | 257 | 0.0 | 0.0 | 0.00 | 0.00 | 0.00 | 91 | 1015.1 |
| 20260505071511 | 9 | 257 | 0.0 | 0.0 | 0.00 | 0.00 | 0.00 | 90 | 1015.1 |
| 20260505070010 | 9 | 257 | 0.0 | 0.0 | 0.00 | 0.00 | 0.00 | 90 | 1015.1 |
| 20260505063011 | 10 | 257 | 0.0 | 0.0 | 0.00 | 0.00 | 0.00 | 89 | 1015.0 |
| 20260505061517 | 10 | 257 | 0.0 | 0.0 | 0.00 | 0.00 | 0.00 | 88 | 1015.2 |
| 20260505060010 | 10 | 257 | 0.0 | 0.0 | 0.00 | 0.00 | 0.00 | 88 | 1015.2 |